Time;durP1;ratioP1;P1;durP2;ratioP2;P2;SDS_P1;SDS_P2;PMS_P1;PMS_P2;Temp;Humidity;BMP_temperature;BMP_pressure;BME280_temperature;BME280_humidity;BME280_pressure;Samples;Min_cycle;Max_cycle;Signal;HPM_P1;HPM_P2
2022/06/08 00:02:21;;;;;;;9.20;8.30;;;;;;;;;;4973375;28;20219;-54
2022/06/08 00:04:47;;;;;;;9.93;8.13;;;;;;;;;;4973125;28;20214;-53
2022/06/08 00:07:14;;;;;;;10.63;7.87;;;;;;;;;;4973156;28;20199;-53
2022/06/08 00:09:41;;;;;;;8.87;7.80;;;;;;;;;;4973026;28;20693;-54
2022/06/08 00:12:08;;;;;;;8.23;7.37;;;;;;;;;;4973043;28;20302;-54
2022/06/08 00:14:34;;;;;;;9.97;7.90;;;;;;;;;;4972823;28;20207;-54
2022/06/08 00:17:00;;;;;;;9.23;7.90;;;;;;;;;;4972838;28;20206;-54
2022/06/08 00:19:26;;;;;;;10.20;9.17;;;;;;;;;;4971868;28;20827;-54
2022/06/08 00:21:53;;;;;;;9.88;8.88;;;;;;;;;;4971518;28;20961;-54
2022/06/08 00:24:19;;;;;;;9.57;8.65;;;;;;;;;;4971628;28;20858;-54
2022/06/08 00:26:46;;;;;;;9.68;8.77;;;;;;;;;;4971492;28;20890;-54
2022/06/08 00:29:13;;;;;;;10.05;8.95;;;;;;;;;;4971294;28;20432;-54
2022/06/08 00:31:39;;;;;;;9.30;8.43;;;;;;;;;;4971665;28;20416;-53
2022/06/08 00:34:05;;;;;;;10.07;9.00;;;;;;;;;;4971565;28;20400;-53
2022/06/08 00:36:31;;;;;;;9.93;9.02;;;;;;;;;;4971506;28;21162;-54
2022/06/08 00:38:57;;;;;;;12.07;9.27;;;;;;;;;;4971576;28;20403;-53
2022/06/08 00:41:33;;;;;;;10.57;9.15;;;;;;;;;;4971440;28;20779;-53
2022/06/08 00:44:02;;;;;;;10.63;9.60;;;;;;;;;;4971255;28;20415;-53
2022/06/08 00:46:28;;;;;;;9.75;8.75;;;;;;;;;;4971289;28;20412;-54
2022/06/08 00:48:56;;;;;;;9.93;8.93;;;;;;;;;;4971379;28;20514;-54
2022/06/08 00:51:22;;;;;;;9.60;8.70;;;;;;;;;;4971615;28;20431;-53
2022/06/08 00:53:50;;;;;;;9.97;8.97;;;;;;;;;;4971217;28;20392;-53
2022/06/08 00:56:18;;;;;;;9.73;8.73;;;;;;;;;;4971201;28;20883;-54
2022/06/08 00:58:44;;;;;;;11.02;9.43;;;;;;;;;;4971079;28;20404;-54
2022/06/08 01:01:11;;;;;;;9.98;9.02;;;;;;;;;;4971058;28;20412;-54
2022/06/08 01:03:38;;;;;;;10.45;9.45;;;;;;;;;;4971395;28;20416;-54
2022/06/08 01:06:05;;;;;;;9.80;8.90;;;;;;;;;;4971108;28;20447;-54
2022/06/08 01:08:32;;;;;;;10.02;9.02;;;;;;;;;;4971069;28;20467;-53
2022/06/08 01:11:00;;;;;;;10.80;9.43;;;;;;;;;;4971368;28;20412;-54
2022/06/08 01:13:28;;;;;;;10.30;9.38;;;;;;;;;;4971036;28;20408;-54
2022/06/08 01:15:54;;;;;;;11.43;10.32;;;;;;;;;;4970985;28;20415;-54
2022/06/08 01:18:22;;;;;;;11.77;10.50;;;;;;;;;;4971102;28;20498;-53
2022/06/08 01:20:48;;;;;;;9.95;9.05;;;;;;;;;;4970984;28;20412;-54
2022/06/08 01:23:16;;;;;;;10.70;9.70;;;;;;;;;;4971000;28;20819;-54
2022/06/08 01:25:49;;;;;;;11.80;10.20;;;;;;;;;;4971045;28;20964;-54
2022/06/08 01:28:18;;;;;;;9.85;8.93;;;;;;;;;;4970982;28;20428;-53
2022/06/08 01:30:51;;;;;;;10.55;9.45;;;;;;;;;;4970990;28;20416;-54
2022/06/08 01:33:26;;;;;;;11.38;10.02;;;;;;;;;;4970997;28;20447;-54
2022/06/08 01:36:00;;;;;;;11.20;10.10;;;;;;;;;;4971298;28;20433;-53
2022/06/08 01:38:32;;;;;;;11.27;10.17;;;;;;;;;;4971131;28;20420;-54
2022/06/08 01:41:06;;;;;;;10.98;9.88;;;;;;;;;;4970908;28;20879;-54
2022/06/08 01:43:43;;;;;;;11.50;10.27;;;;;;;;;;4970954;28;20408;-54
2022/06/08 01:46:12;;;;;;;10.32;9.35;;;;;;;;;;4970841;28;20907;-54
2022/06/08 01:48:47;;;;;;;11.45;9.63;;;;;;;;;;4970955;28;20483;-54
2022/06/08 01:51:20;;;;;;;10.73;9.40;;;;;;;;;;4971079;28;20499;-54
2022/06/08 01:53:51;;;;;;;10.55;9.55;;;;;;;;;;4970911;28;20416;-53
2022/06/08 01:56:21;;;;;;;11.13;9.93;;;;;;;;;;4970846;28;20504;-54
2022/06/08 01:58:52;;;;;;;10.63;9.63;;;;;;;;;;4970729;28;20482;-53
2022/06/08 02:01:20;;;;;;;11.43;10.38;;;;;;;;;;4970611;28;20432;-54
2022/06/08 02:03:51;;;;;;;10.82;9.75;;;;;;;;;;4972332;28;20420;-54
2022/06/08 02:06:21;;;;;;;11.32;9.88;;;;;;;;;;4974318;28;21098;-54
2022/06/08 02:08:50;;;;;;;10.50;9.50;;;;;;;;;;4974205;28;20432;-54
2022/06/08 02:11:19;;;;;;;10.83;9.73;;;;;;;;;;4974028;28;20473;-54
2022/06/08 02:13:48;;;;;;;10.68;9.63;;;;;;;;;;4974012;28;20419;-54
2022/06/08 02:16:16;;;;;;;11.13;10.02;;;;;;;;;;4973543;28;20771;-54
2022/06/08 02:18:44;;;;;;;10.98;9.88;;;;;;;;;;4974029;28;20443;-56
2022/06/08 02:21:12;;;;;;;10.43;9.52;;;;;;;;;;4973838;28;20823;-55
2022/06/08 02:23:41;;;;;;;10.25;9.27;;;;;;;;;;4973890;28;20605;-54
2022/06/08 02:26:12;;;;;;;10.85;9.80;;;;;;;;;;4973998;28;20474;-55
2022/06/08 02:28:42;;;;;;;11.57;9.52;;;;;;;;;;4973834;28;20424;-55
2022/06/08 02:31:11;;;;;;;10.43;9.52;;;;;;;;;;4973737;28;20415;-54
2022/06/08 02:36:26;;;;;;;10.32;9.43;;;;;;;;;;4973733;28;20902;-55
2022/06/08 02:38:54;;;;;;;11.02;10.02;;;;;;;;;;4973733;28;20883;-55
2022/06/08 02:41:21;;;;;;;11.80;9.82;;;;;;;;;;4973649;28;20492;-54
2022/06/08 02:43:50;;;;;;;10.40;9.40;;;;;;;;;;4973459;28;20467;-55
2022/06/08 02:46:20;;;;;;;10.50;9.45;;;;;;;;;;4973437;28;20420;-55
2022/06/08 02:48:46;;;;;;;9.75;8.80;;;;;;;;;;4973417;28;20424;-55
2022/06/08 02:51:12;;;;;;;10.98;9.18;;;;;;;;;;4973351;28;20802;-54
2022/06/08 02:53:43;;;;;;;9.70;8.90;;;;;;;;;;4973595;28;20440;-54
2022/06/08 02:56:14;;;;;;;10.50;9.40;;;;;;;;;;4973333;28;20426;-54
2022/06/08 02:58:43;;;;;;;10.02;9.20;;;;;;;;;;4973735;28;20490;-55
2022/06/08 03:01:12;;;;;;;10.05;9.05;;;;;;;;;;4973231;28;20432;-55
2022/06/08 03:03:40;;;;;;;10.23;9.18;;;;;;;;;;4973179;28;20415;-54
2022/06/08 03:06:07;;;;;;;10.05;9.15;;;;;;;;;;4972817;28;20420;-55
2022/06/08 03:08:35;;;;;;;9.18;8.35;;;;;;;;;;4973226;28;20424;-54
2022/06/08 03:11:02;;;;;;;10.27;9.27;;;;;;;;;;4972901;28;20419;-54
2022/06/08 03:13:29;;;;;;;10.00;8.85;;;;;;;;;;4972888;28;20916;-54
2022/06/08 03:15:56;;;;;;;10.30;9.30;;;;;;;;;;4972094;28;20416;-54
2022/06/08 03:18:24;;;;;;;9.43;8.52;;;;;;;;;;4972779;28;20435;-54
2022/06/08 03:20:50;;;;;;;9.65;8.75;;;;;;;;;;4972902;28;20412;-54
2022/06/08 03:23:17;;;;;;;9.15;8.32;;;;;;;;;;4972765;28;20471;-55
2022/06/08 03:25:43;;;;;;;10.38;9.48;;;;;;;;;;4972630;28;20408;-55
2022/06/08 03:28:12;;;;;;;10.38;9.48;;;;;;;;;;4972473;28;20487;-54
2022/06/08 03:30:39;;;;;;;10.02;9.02;;;;;;;;;;4972960;28;20424;-55
2022/06/08 03:33:05;;;;;;;10.05;9.05;;;;;;;;;;4972661;28;20419;-54
2022/06/08 03:35:32;;;;;;;10.10;9.10;;;;;;;;;;4972686;28;20416;-54
2022/06/08 03:37:59;;;;;;;10.45;9.45;;;;;;;;;;4972706;28;20405;-54
2022/06/08 03:40:25;;;;;;;9.98;8.98;;;;;;;;;;4972380;28;20562;-54
2022/06/08 03:42:51;;;;;;;9.77;8.77;;;;;;;;;;4972523;28;20412;-54
2022/06/08 03:45:17;;;;;;;9.82;8.70;;;;;;;;;;4972239;28;20961;-54
2022/06/08 03:47:44;;;;;;;10.17;9.17;;;;;;;;;;4972463;28;20420;-54
2022/06/08 03:50:12;;;;;;;9.65;8.75;;;;;;;;;;4972421;28;20404;-55
2022/06/08 03:52:42;;;;;;;10.10;9.20;;;;;;;;;;4972247;28;20416;-55
2022/06/08 03:55:09;;;;;;;10.00;8.98;;;;;;;;;;4972040;28;20416;-54
2022/06/08 03:57:35;;;;;;;10.38;9.30;;;;;;;;;;4972265;28;20483;-54
2022/06/08 04:00:01;;;;;;;10.27;9.35;;;;;;;;;;4972084;28;20412;-54
2022/06/08 04:02:28;;;;;;;11.00;9.90;;;;;;;;;;4972147;28;20791;-54
2022/06/08 04:04:54;;;;;;;13.50;11.18;;;;;;;;;;4972051;28;20786;-54
2022/06/08 04:07:20;;;;;;;13.63;12.18;;;;;;;;;;4971826;28;20412;-54
2022/06/08 04:09:48;;;;;;;18.33;14.45;;;;;;;;;;4972551;28;20478;-55
2022/06/08 04:12:14;;;;;;;16.40;13.87;;;;;;;;;;4971850;28;20415;-55
2022/06/08 04:14:40;;;;;;;15.70;12.70;;;;;;;;;;4972000;28;20454;-55
2022/06/08 04:17:07;;;;;;;13.20;11.57;;;;;;;;;;4971965;28;20811;-55
2022/06/08 04:19:34;;;;;;;12.60;11.30;;;;;;;;;;4971865;28;20763;-54
2022/06/08 04:22:00;;;;;;;11.60;10.40;;;;;;;;;;4971932;28;20882;-55
2022/06/08 04:24:26;;;;;;;12.52;11.13;;;;;;;;;;4971651;28;20405;-54
2022/06/08 04:26:53;;;;;;;12.15;10.95;;;;;;;;;;4971317;28;20401;-54
2022/06/08 04:29:20;;;;;;;11.65;10.55;;;;;;;;;;4971453;28;20483;-55
2022/06/08 04:31:46;;;;;;;12.32;11.13;;;;;;;;;;4971669;28;20474;-55
2022/06/08 04:34:13;;;;;;;13.05;11.75;;;;;;;;;;4971580;28;20416;-54
2022/06/08 04:36:39;;;;;;;12.73;11.43;;;;;;;;;;4971779;28;20423;-55
2022/06/08 04:39:07;;;;;;;12.95;11.75;;;;;;;;;;4971711;28;20400;-55
2022/06/08 04:41:33;;;;;;;13.65;12.32;;;;;;;;;;4971550;28;20447;-55
2022/06/08 04:44:01;;;;;;;13.43;12.03;;;;;;;;;;4971360;28;20410;-54
2022/06/08 04:46:27;;;;;;;12.80;11.60;;;;;;;;;;4971429;28;20446;-55
2022/06/08 04:48:53;;;;;;;14.13;12.82;;;;;;;;;;4971420;28;20428;-55
2022/06/08 04:51:19;;;;;;;14.48;13.02;;;;;;;;;;4971404;28;20826;-55
2022/06/08 04:53:47;;;;;;;14.00;12.80;;;;;;;;;;4971359;28;20427;-54
2022/06/08 04:56:13;;;;;;;15.80;14.20;;;;;;;;;;4971212;28;20416;-55
2022/06/08 04:58:39;;;;;;;15.70;14.18;;;;;;;;;;4971205;28;20444;-54
2022/06/08 05:01:06;;;;;;;14.85;13.50;;;;;;;;;;4971255;28;20435;-55
2022/06/08 05:03:33;;;;;;;16.20;14.57;;;;;;;;;;4971176;28;20423;-55
2022/06/08 05:06:00;;;;;;;16.60;15.00;;;;;;;;;;4970885;28;20515;-54
2022/06/08 05:08:26;;;;;;;16.75;15.25;;;;;;;;;;4971080;28;20447;-54
2022/06/08 05:10:52;;;;;;;16.05;14.63;;;;;;;;;;4970981;28;21100;-54
2022/06/08 05:13:20;;;;;;;15.63;14.23;;;;;;;;;;4970815;28;20420;-53
2022/06/08 05:15:46;;;;;;;16.60;14.95;;;;;;;;;;4970702;28;20404;-54
2022/06/08 05:18:15;;;;;;;15.47;14.07;;;;;;;;;;4970811;28;20847;-55
2022/06/08 05:20:42;;;;;;;14.40;13.10;;;;;;;;;;4970647;28;20486;-54
2022/06/08 05:23:09;;;;;;;14.35;13.00;;;;;;;;;;4970788;28;20407;-53
2022/06/08 05:25:36;;;;;;;15.10;13.85;;;;;;;;;;4970358;28;20954;-53
2022/06/08 05:28:03;;;;;;;16.60;15.10;;;;;;;;;;4970470;28;20466;-55
2022/06/08 05:30:29;;;;;;;17.17;15.65;;;;;;;;;;4970843;28;20752;-55
2022/06/08 05:32:56;;;;;;;16.48;15.02;;;;;;;;;;4970606;28;20847;-54
2022/06/08 05:35:23;;;;;;;17.45;15.85;;;;;;;;;;4970523;28;20420;-54
2022/06/08 05:37:49;;;;;;;18.05;16.25;;;;;;;;;;4971132;28;20960;-55
2022/06/08 05:40:16;;;;;;;15.27;14.00;;;;;;;;;;4974101;28;20408;-54
2022/06/08 05:42:42;;;;;;;17.48;15.82;;;;;;;;;;4974359;28;20412;-55
2022/06/08 05:45:09;;;;;;;16.77;15.38;;;;;;;;;;4974357;28;20412;-55
2022/06/08 05:47:35;;;;;;;17.00;15.50;;;;;;;;;;4974405;28;20425;-53
2022/06/08 05:50:01;;;;;;;17.20;15.70;;;;;;;;;;4974626;28;20427;-54
2022/06/08 05:52:29;;;;;;;17.25;15.75;;;;;;;;;;4974263;28;20500;-54
2022/06/08 05:54:55;;;;;;;16.65;15.15;;;;;;;;;;4974646;28;20487;-54
2022/06/08 05:57:21;;;;;;;16.25;14.95;;;;;;;;;;4974076;28;20427;-54
2022/06/08 05:59:47;;;;;;;17.05;15.55;;;;;;;;;;4974232;28;20863;-54
2022/06/08 06:02:14;;;;;;;17.38;15.75;;;;;;;;;;4974295;28;20404;-54
2022/06/08 06:04:41;;;;;;;19.23;17.43;;;;;;;;;;4973796;28;20917;-54
2022/06/08 06:07:07;;;;;;;16.38;15.00;;;;;;;;;;4974239;28;20490;-54
2022/06/08 06:09:34;;;;;;;17.35;15.85;;;;;;;;;;4973819;28;20412;-54
2022/06/08 06:12:00;;;;;;;17.58;15.98;;;;;;;;;;4973861;28;20448;-54
2022/06/08 06:14:26;;;;;;;16.38;14.98;;;;;;;;;;4973792;28;20416;-53
2022/06/08 06:16:52;;;;;;;17.30;15.80;;;;;;;;;;4973765;28;20420;-54
2022/06/08 06:19:18;;;;;;;15.27;13.83;;;;;;;;;;4975080;28;20205;-53
2022/06/08 06:21:44;;;;;;;15.53;14.07;;;;;;;;;;4975200;28;20282;-55
2022/06/08 06:24:10;;;;;;;16.33;14.80;;;;;;;;;;4975108;28;20249;-52
2022/06/08 06:26:37;;;;;;;15.77;14.10;;;;;;;;;;4974885;28;20591;-58
2022/06/08 06:29:03;;;;;;;15.03;13.63;;;;;;;;;;4974820;28;20235;-54
2022/06/08 06:31:31;;;;;;;15.30;13.97;;;;;;;;;;4974938;28;20657;-55
2022/06/08 06:33:58;;;;;;;16.70;14.93;;;;;;;;;;4975222;28;20192;-53
2022/06/08 06:36:24;;;;;;;17.50;15.80;;;;;;;;;;4974513;28;20293;-55
2022/06/08 06:38:50;;;;;;;17.50;15.70;;;;;;;;;;4974981;28;20636;-54
2022/06/08 06:41:16;;;;;;;17.27;15.57;;;;;;;;;;4974606;28;20202;-54
2022/06/08 06:43:44;;;;;;;18.67;16.87;;;;;;;;;;4974500;28;20736;-54
2022/06/08 06:46:10;;;;;;;17.13;15.43;;;;;;;;;;4974557;28;20218;-54
2022/06/08 06:48:36;;;;;;;17.87;16.07;;;;;;;;;;4974168;28;20305;-54
2022/06/08 06:51:02;;;;;;;20.30;18.33;;;;;;;;;;4974349;28;20223;-55
2022/06/08 06:53:29;;;;;;;20.73;18.33;;;;;;;;;;4974382;28;20211;-55
2022/06/08 06:55:55;;;;;;;19.63;17.70;;;;;;;;;;4974417;28;20431;-55
2022/06/08 06:58:22;;;;;;;22.30;19.83;;;;;;;;;;4974606;28;20196;-55
2022/06/08 07:00:49;;;;;;;28.70;25.67;;;;;;;;;;4974682;28;20202;-55
2022/06/08 07:03:16;;;;;;;29.53;24.13;;;;;;;;;;4974180;28;20669;-55
2022/06/08 07:05:42;;;;;;;27.23;24.27;;;;;;;;;;4974385;28;20279;-54
2022/06/08 07:08:08;;;;;;;28.07;23.90;;;;;;;;;;4974165;28;20597;-55
2022/06/08 07:10:36;;;;;;;24.57;22.10;;;;;;;;;;4974418;28;20262;-54
2022/06/08 07:13:03;;;;;;;24.17;21.50;;;;;;;;;;4974492;28;20621;-55
2022/06/08 07:15:29;;;;;;;22.17;19.87;;;;;;;;;;4974010;28;20204;-55
2022/06/08 07:17:56;;;;;;;22.00;19.70;;;;;;;;;;4974212;28;20224;-54
2022/06/08 07:20:23;;;;;;;21.27;18.93;;;;;;;;;;4973902;28;20303;-54
2022/06/08 07:22:50;;;;;;;21.97;19.77;;;;;;;;;;4974034;28;20227;-54
2022/06/08 07:25:17;;;;;;;20.93;18.73;;;;;;;;;;4973904;28;20245;-55
2022/06/08 07:27:44;;;;;;;21.03;18.83;;;;;;;;;;4973530;28;20209;-55
2022/06/08 07:30:11;;;;;;;19.00;17.20;;;;;;;;;;4973297;28;20701;-55
2022/06/08 07:32:37;;;;;;;19.00;17.20;;;;;;;;;;4973681;28;20201;-55
2022/06/08 07:35:05;;;;;;;19.53;17.60;;;;;;;;;;4973601;28;20202;-55
2022/06/08 07:37:31;;;;;;;18.90;16.93;;;;;;;;;;4973708;28;20202;-55
2022/06/08 07:39:57;;;;;;;19.07;17.07;;;;;;;;;;4973645;28;20199;-54
2022/06/08 07:42:24;;;;;;;16.73;15.13;;;;;;;;;;4973007;28;20199;-54
2022/06/08 07:44:50;;;;;;;17.47;15.37;;;;;;;;;;4973444;28;20202;-54
2022/06/08 07:47:16;;;;;;;16.63;14.23;;;;;;;;;;4973090;28;20724;-54
2022/06/08 07:49:49;;;;;;;17.50;15.70;;;;;;;;;;4973582;28;20226;-55
2022/06/08 07:52:17;;;;;;;16.40;14.80;;;;;;;;;;4973530;28;20206;-54
2022/06/08 07:54:44;;;;;;;16.93;15.13;;;;;;;;;;4973357;28;20219;-55
2022/06/08 07:57:14;;;;;;;16.77;15.13;;;;;;;;;;4973402;28;20202;-55
2022/06/08 07:59:40;;;;;;;15.57;14.07;;;;;;;;;;4973225;28;20478;-55
2022/06/08 08:02:07;;;;;;;14.30;13.00;;;;;;;;;;4972823;28;20202;-54
2022/06/08 08:04:33;;;;;;;14.70;13.20;;;;;;;;;;4972938;28;20209;-55
2022/06/08 08:06:59;;;;;;;14.53;13.13;;;;;;;;;;4973279;28;20210;-55
2022/06/08 08:09:27;;;;;;;12.77;11.47;;;;;;;;;;4973152;28;20230;-54
2022/06/08 08:11:53;;;;;;;9.43;8.53;;;;;;;;;;4972997;28;20695;-55
2022/06/08 08:14:20;;;;;;;11.93;10.73;;;;;;;;;;4973086;28;20206;-55
2022/06/08 08:16:47;;;;;;;14.27;12.77;;;;;;;;;;4973196;28;20198;-69
2022/06/08 08:19:18;;;;;;;14.63;13.23;;;;;;;;;;4972763;28;20501;-67
2022/06/08 08:21:44;;;;;;;13.60;12.30;;;;;;;;;;4973052;28;20219;-67
2022/06/08 08:24:10;;;;;;;14.80;12.27;;;;;;;;;;4973127;28;20202;-68
2022/06/08 08:26:38;;;;;;;13.30;11.87;;;;;;;;;;4972517;28;20226;-68
2022/06/08 08:29:04;;;;;;;15.03;13.53;;;;;;;;;;4972660;28;20249;-60
2022/06/08 08:31:31;;;;;;;16.00;14.27;;;;;;;;;;4972582;28;20259;-64
2022/06/08 08:33:57;;;;;;;15.00;13.57;;;;;;;;;;4972824;28;20222;-56
2022/06/08 08:36:24;;;;;;;15.77;14.20;;;;;;;;;;4972935;28;20203;-56
2022/06/08 08:38:50;;;;;;;11.70;10.50;;;;;;;;;;4972576;28;20680;-56
2022/06/08 08:44:05;;;;;;;6.00;5.27;;;;;;;;;;4972811;28;20206;-56
2022/06/08 08:46:35;;;;;;;6.33;5.73;;;;;;;;;;4972454;28;20226;-56
2022/06/08 08:49:04;;;;;;;8.90;6.87;;;;;;;;;;4972472;28;20227;-56
2022/06/08 08:51:35;;;;;;;8.50;7.70;;;;;;;;;;4972374;28;20204;-57
2022/06/08 08:54:12;;;;;;;7.87;7.17;;;;;;;;;;4972599;28;20211;-56
2022/06/08 08:56:39;;;;;;;8.10;7.03;;;;;;;;;;4972301;28;20217;-56
2022/06/08 08:59:12;;;;;;;8.70;6.97;;;;;;;;;;4972555;28;20196;-57
2022/06/08 09:01:39;;;;;;;7.93;7.23;;;;;;;;;;4972378;28;20209;-57
2022/06/08 09:04:06;;;;;;;8.53;7.73;;;;;;;;;;4971631;28;20662;-57
2022/06/08 09:06:33;;;;;;;9.47;8.43;;;;;;;;;;4971713;28;20294;-57
2022/06/08 09:09:02;;;;;;;9.13;7.07;;;;;;;;;;4971534;28;20934;-56
2022/06/08 09:11:31;;;;;;;7.43;6.00;;;;;;;;;;4968655;28;20225;-57
2022/06/08 09:13:58;;;;;;;6.67;6.00;;;;;;;;;;4972567;28;20615;-57
2022/06/08 09:16:27;;;;;;;6.87;6.17;;;;;;;;;;4974621;28;20753;-57
2022/06/08 09:18:53;;;;;;;6.40;5.80;;;;;;;;;;4975026;28;20205;-57
2022/06/08 09:21:26;;;;;;;7.03;6.43;;;;;;;;;;4974948;28;20283;-57
2022/06/08 09:23:53;;;;;;;6.83;6.10;;;;;;;;;;4974839;28;20218;-57
2022/06/08 09:26:28;;;;;;;5.90;5.40;;;;;;;;;;4975869;28;20363;-57
2022/06/08 09:28:57;;;;;;;6.53;5.90;;;;;;;;;;4975536;28;20234;-57
2022/06/08 09:31:25;;;;;;;5.50;5.00;;;;;;;;;;4975869;28;20207;-57
2022/06/08 09:34:02;;;;;;;4.57;4.17;;;;;;;;;;4975799;28;20608;-57
2022/06/08 09:36:29;;;;;;;5.43;4.87;;;;;;;;;;4975774;28;20199;-57
2022/06/08 09:38:55;;;;;;;4.63;4.23;;;;;;;;;;4976072;28;20195;-57
2022/06/08 09:41:24;;;;;;;6.77;5.63;;;;;;;;;;4975888;28;20191;-57
2022/06/08 09:43:58;;;;;;;7.17;6.10;;;;;;;;;;4976340;28;20203;-57
2022/06/08 09:51:25;;;;;;;5.30;4.90;;;;;;;;;;4976240;28;20248;-57
2022/06/08 09:52:17;;;;;;;4.83;4.43;;;;;;;;;;4975971;28;20375;-57
2022/06/08 09:54:46;;;;;;;4.07;3.67;;;;;;;;;;4975697;28;20203;-57
2022/06/08 09:57:21;;;;;;;4.40;4.00;;;;;;;;;;4975890;28;20202;-57
2022/06/08 09:59:56;;;;;;;3.90;3.50;;;;;;;;;;4975800;28;20202;-57
2022/06/08 10:02:25;;;;;;;5.03;4.63;;;;;;;;;;4975569;28;20231;-57
2022/06/08 10:05:00;;;;;;;5.20;4.03;;;;;;;;;;4975626;28;20537;-57
2022/06/08 10:07:28;;;;;;;3.63;3.33;;;;;;;;;;4975541;28;20957;-57
2022/06/08 10:10:01;;;;;;;4.27;3.87;;;;;;;;;;4975642;28;20282;-57
2022/06/08 10:12:32;;;;;;;4.10;3.80;;;;;;;;;;4975086;28;20208;-57
2022/06/08 10:15:03;;;;;;;4.63;3.73;;;;;;;;;;4975656;28;20211;-57
2022/06/08 10:17:32;;;;;;;7.13;4.00;;;;;;;;;;4975537;28;20230;-54
2022/06/08 10:20:03;;;;;;;4.30;3.90;;;;;;;;;;4975197;28;20209;-55
2022/06/08 10:22:31;;;;;;;4.30;3.80;;;;;;;;;;4975201;28;20240;-55
2022/06/08 10:25:01;;;;;;;4.67;4.13;;;;;;;;;;4974804;28;20249;-55
2022/06/08 10:27:33;;;;;;;4.33;3.97;;;;;;;;;;4975112;28;20548;-57
2022/06/08 10:30:04;;;;;;;6.93;4.60;;;;;;;;;;4974957;28;20232;-57
2022/06/08 10:32:33;;;;;;;4.97;4.23;;;;;;;;;;4975086;28;20196;-57
2022/06/08 10:35:01;;;;;;;4.90;4.50;;;;;;;;;;4973058;28;20209;-57
2022/06/08 10:37:30;;;;;;;5.90;5.30;;;;;;;;;;4974975;28;20212;-57
2022/06/08 10:39:56;;;;;;;5.00;4.60;;;;;;;;;;4975033;28;20196;-57
2022/06/08 10:42:40;;;;;;;3.87;3.57;;;;;;;;;;4974819;28;20785;-57
2022/06/08 10:45:21;;;;;;;4.10;3.20;;;;;;;;;;4974982;28;20894;-57
2022/06/08 10:47:53;;;;;;;3.17;2.93;;;;;;;;;;4974830;28;20219;-57
2022/06/08 10:50:27;;;;;;;3.30;2.70;;;;;;;;;;4972731;28;20233;-56
2022/06/08 10:54:52;;;;;;;3.20;3.00;;;;;;;;;;4993713;28;20203;-57
2022/06/08 10:55:40;;;;;;;2.90;2.70;;;;;;;;;;4993738;28;20210;-56
2022/06/08 10:58:08;;;;;;;2.23;2.03;;;;;;;;;;4994192;28;20197;-56
2022/06/08 11:00:52;;;;;;;2.33;2.13;;;;;;;;;;4994066;28;20573;-56
2022/06/08 11:03:36;;;;;;;2.50;1.93;;;;;;;;;;4994084;28;20257;-56
2022/06/08 11:06:07;;;;;;;2.53;2.33;;;;;;;;;;4994049;28;20204;-56
2022/06/08 11:08:51;;;;;;;3.53;1.90;;;;;;;;;;4993891;28;20208;-56
2022/06/08 11:11:37;;;;;;;2.50;1.80;;;;;;;;;;4993834;28;20208;-56
2022/06/08 11:14:23;;;;;;;2.83;2.63;;;;;;;;;;4993799;28;20271;-56
2022/06/08 11:16:49;;;;;;;3.57;3.13;;;;;;;;;;4993592;28;20569;-56
2022/06/08 11:19:16;;;;;;;2.00;1.80;;;;;;;;;;4993800;28;20209;-56
2022/06/08 11:21:49;;;;;;;3.17;1.60;;;;;;;;;;4993395;28;20678;-56
2022/06/08 11:24:23;;;;;;;1.93;1.80;;;;;;;;;;4993069;28;20579;-56
2022/06/08 11:26:51;;;;;;;1.63;1.50;;;;;;;;;;4993322;28;20746;-57
2022/06/08 11:29:37;;;;;;;2.57;1.90;;;;;;;;;;4992971;28;20767;-56
2022/06/08 11:32:03;;;;;;;1.60;1.50;;;;;;;;;;4993396;28;20193;-56
2022/06/08 11:34:44;;;;;;;2.07;1.73;;;;;;;;;;4993466;28;20195;-56
2022/06/08 11:37:17;;;;;;;2.13;1.43;;;;;;;;;;4992796;28;20206;-57
2022/06/08 11:39:48;;;;;;;2.27;1.70;;;;;;;;;;4991701;28;20205;-57
2022/06/08 11:42:25;;;;;;;2.10;1.80;;;;;;;;;;4993554;28;20282;-57
2022/06/08 11:44:52;;;;;;;3.50;1.73;;;;;;;;;;4993478;28;20197;-56
2022/06/08 11:47:20;;;;;;;2.10;2.00;;;;;;;;;;4993403;28;20199;-56
2022/06/08 11:49:54;;;;;;;2.23;1.90;;;;;;;;;;4992923;28;20226;-57
2022/06/08 11:52:26;;;;;;;2.33;1.70;;;;;;;;;;4993006;28;20199;-57
2022/06/08 11:55:10;;;;;;;2.33;1.83;;;;;;;;;;4993059;28;20269;-57
2022/06/08 11:57:38;;;;;;;1.50;1.40;;;;;;;;;;4992976;28;20198;-57
2022/06/08 12:00:06;;;;;;;1.67;1.40;;;;;;;;;;4993163;28;20226;-56
2022/06/08 12:02:36;;;;;;;1.57;1.43;;;;;;;;;;4993001;28;20198;-56
2022/06/08 12:05:03;;;;;;;1.53;1.30;;;;;;;;;;4992990;28;20206;-56
2022/06/08 12:07:37;;;;;;;2.33;1.30;;;;;;;;;;4993183;28;20212;-57
2022/06/08 12:10:03;;;;;;;1.70;1.10;;;;;;;;;;4993129;28;20259;-57
2022/06/08 12:12:30;;;;;;;1.03;1.00;;;;;;;;;;4992902;28;20228;-57
2022/06/08 12:14:56;;;;;;;3.13;1.30;;;;;;;;;;4992748;28;20203;-57
2022/06/08 12:17:25;;;;;;;1.13;1.00;;;;;;;;;;4992856;28;20214;-57
2022/06/08 12:19:53;;;;;;;3.03;1.00;;;;;;;;;;4992601;28;20199;-57
2022/06/08 12:22:21;;;;;;;1.63;1.00;;;;;;;;;;4992603;28;20239;-57
2022/06/08 12:25:01;;;;;;;1.87;1.20;;;;;;;;;;4992674;28;20206;-57
2022/06/08 12:27:29;;;;;;;1.47;1.30;;;;;;;;;;4992127;28;20206;-57
2022/06/08 12:29:56;;;;;;;1.50;1.30;;;;;;;;;;4992224;28;20334;-57
2022/06/08 12:32:30;;;;;;;1.20;1.10;;;;;;;;;;4992662;28;20194;-57
2022/06/08 12:35:16;;;;;;;2.23;1.50;;;;;;;;;;4992382;28;20213;-57
2022/06/08 12:37:45;;;;;;;1.40;1.27;;;;;;;;;;4992392;28;20201;-56
2022/06/08 12:40:29;;;;;;;1.40;1.30;;;;;;;;;;4992239;28;20750;-56
2022/06/08 12:42:59;;;;;;;3.77;1.50;;;;;;;;;;4992380;28;20292;-56
2022/06/08 12:45:26;;;;;;;2.77;1.20;;;;;;;;;;4992456;28;20213;-55
2022/06/08 12:47:52;;;;;;;3.40;1.80;;;;;;;;;;4991939;28;20243;-56
2022/06/08 12:50:21;;;;;;;1.40;1.23;;;;;;;;;;4992164;28;20227;-61
2022/06/08 12:52:47;;;;;;;1.37;1.20;;;;;;;;;;4992390;28;20196;-56
2022/06/08 12:55:14;;;;;;;1.23;1.13;;;;;;;;;;4992204;28;20259;-57
2022/06/08 12:57:42;;;;;;;2.80;1.20;;;;;;;;;;4992074;28;20669;-57
2022/06/08 13:00:12;;;;;;;3.30;1.17;;;;;;;;;;4992157;28;20208;-56
2022/06/08 13:02:40;;;;;;;2.27;1.47;;;;;;;;;;4991686;28;20204;-56
2022/06/08 13:05:08;;;;;;;2.67;1.40;;;;;;;;;;4991860;28;20221;-56
2022/06/08 13:07:35;;;;;;;2.03;1.30;;;;;;;;;;4992093;28;20203;-56
2022/06/08 13:10:01;;;;;;;1.33;1.23;;;;;;;;;;4991864;28;20239;-57
2022/06/08 13:12:31;;;;;;;1.40;1.30;;;;;;;;;;4991821;28;20199;-57
2022/06/08 13:14:57;;;;;;;2.60;1.33;;;;;;;;;;4991750;28;20578;-58
2022/06/08 13:17:25;;;;;;;1.60;1.33;;;;;;;;;;4991976;28;20202;-57
2022/06/08 13:19:51;;;;;;;1.30;1.20;;;;;;;;;;4991685;28;20198;-56
2022/06/08 13:22:18;;;;;;;1.70;1.10;;;;;;;;;;4992057;28;20211;-56
2022/06/08 13:24:44;;;;;;;1.10;1.10;;;;;;;;;;4991690;28;20198;-56
2022/06/08 13:27:12;;;;;;;2.07;1.17;;;;;;;;;;4990747;28;20853;-56
2022/06/08 13:29:39;;;;;;;2.13;1.20;;;;;;;;;;4989649;28;20241;-55
2022/06/08 13:32:06;;;;;;;1.50;1.40;;;;;;;;;;4991553;28;20565;-56
2022/06/08 13:34:34;;;;;;;1.83;1.23;;;;;;;;;;4991883;28;20815;-56
2022/06/08 13:37:00;;;;;;;6.37;1.27;;;;;;;;;;4991832;28;20567;-56
2022/06/08 13:39:28;;;;;;;2.23;1.07;;;;;;;;;;4991595;28;20202;-56
2022/06/08 13:41:55;;;;;;;1.40;1.30;;;;;;;;;;4991433;28;20202;-57
2022/06/08 13:44:25;;;;;;;3.23;1.20;;;;;;;;;;4991774;28;20198;-56
2022/06/08 13:46:53;;;;;;;1.80;1.20;;;;;;;;;;4991338;28;20210;-57
2022/06/08 13:49:19;;;;;;;1.73;1.30;;;;;;;;;;4991428;28;20635;-57
2022/06/08 13:51:46;;;;;;;1.30;1.20;;;;;;;;;;4991349;28;20214;-56
2022/06/08 13:54:18;;;;;;;2.43;1.40;;;;;;;;;;4991412;28;20214;-56
2022/06/08 13:56:44;;;;;;;1.30;1.20;;;;;;;;;;4991261;28;20202;-56
2022/06/08 13:59:11;;;;;;;1.50;1.40;;;;;;;;;;4991975;28;20221;-56
2022/06/08 14:01:38;;;;;;;1.70;1.40;;;;;;;;;;4995194;28;20217;-56
2022/06/08 14:04:08;;;;;;;1.40;1.27;;;;;;;;;;4994784;28;20260;-57
2022/06/08 14:14:52;;;;;;;1.27;1.17;;;;;;;;;;4994684;28;20580;-58
2022/06/08 14:17:19;;;;;;;1.30;1.20;;;;;;;;;;4994627;28;20795;-56
2022/06/08 14:19:47;;;;;;;2.50;1.37;;;;;;;;;;4994812;28;20337;-56
2022/06/08 14:22:14;;;;;;;1.30;1.20;;;;;;;;;;4994496;28;20206;-56
2022/06/08 14:24:45;;;;;;;1.30;1.20;;;;;;;;;;4994420;28;20459;-56
2022/06/08 14:27:12;;;;;;;1.43;1.30;;;;;;;;;;4994703;28;20218;-57
2022/06/08 14:29:40;;;;;;;1.40;1.30;;;;;;;;;;4994549;28;20230;-56
2022/06/08 14:32:13;;;;;;;1.40;1.30;;;;;;;;;;4994279;28;20202;-56
2022/06/08 14:34:39;;;;;;;1.33;1.23;;;;;;;;;;4994644;28;20202;-56
2022/06/08 14:37:06;;;;;;;1.50;1.40;;;;;;;;;;4965751;28;20200;-57
2022/06/08 14:39:34;;;;;;;2.23;1.40;;;;;;;;;;4955577;29;20659;-56
2022/06/08 14:42:02;;;;;;;3.20;1.50;;;;;;;;;;4955565;29;20330;-56
2022/06/08 14:44:28;;;;;;;1.60;1.47;;;;;;;;;;4955758;28;20568;-57
2022/06/08 14:46:55;;;;;;;3.00;1.40;;;;;;;;;;4955629;29;20195;-57
2022/06/08 14:49:23;;;;;;;1.20;1.10;;;;;;;;;;4955556;28;20258;-57
2022/06/08 14:51:49;;;;;;;1.17;1.13;;;;;;;;;;4955579;28;20208;-56
2022/06/08 14:54:17;;;;;;;1.50;1.37;;;;;;;;;;4955661;29;20191;-56
2022/06/08 14:56:43;;;;;;;1.30;1.20;;;;;;;;;;4955284;29;20881;-56